sensor_id;sensor_type;location;lat;lon;timestamp;pressure;altitude;pressure_sealevel;temperature;humidity
30967;BME280;17649;51.836;8.330;2023-05-11T00:02:37;100833.44;;;14.73;nan
30967;BME280;17649;51.836;8.330;2023-05-11T00:05:37;100827.00;;;14.78;nan
30967;BME280;17649;51.836;8.330;2023-05-11T00:08:37;100821.56;;;14.69;nan
30967;BME280;17649;51.836;8.330;2023-05-11T00:11:37;100814.09;;;14.64;nan
30967;BME280;17649;51.836;8.330;2023-05-11T00:14:38;100819.81;;;14.56;nan
30967;BME280;17649;51.836;8.330;2023-05-11T00:17:39;100825.00;;;14.56;nan
30967;BME280;17649;51.836;8.330;2023-05-11T00:20:39;100823.34;;;14.68;nan
30967;BME280;17649;51.836;8.330;2023-05-11T00:23:39;100817.09;;;14.58;nan
30967;BME280;17649;51.836;8.330;2023-05-11T00:26:40;100815.75;;;14.52;nan
30967;BME280;17649;51.836;8.330;2023-05-11T00:29:40;100812.22;;;14.53;nan
30967;BME280;17649;51.836;8.330;2023-05-11T00:32:41;100816.81;;;14.50;nan
30967;BME280;17649;51.836;8.330;2023-05-11T00:35:41;100819.91;;;14.55;nan
30967;BME280;17649;51.836;8.330;2023-05-11T00:38:42;100819.09;;;14.54;nan
30967;BME280;17649;51.836;8.330;2023-05-11T00:41:42;100808.66;;;14.54;nan
30967;BME280;17649;51.836;8.330;2023-05-11T00:44:43;100819.28;;;14.64;nan
30967;BME280;17649;51.836;8.330;2023-05-11T00:47:43;100813.16;;;14.52;nan
30967;BME280;17649;51.836;8.330;2023-05-11T00:50:43;100814.91;;;14.65;nan
30967;BME280;17649;51.836;8.330;2023-05-11T00:53:44;100814.31;;;14.61;nan
30967;BME280;17649;51.836;8.330;2023-05-11T00:56:44;100817.31;;;14.68;nan
30967;BME280;17649;51.836;8.330;2023-05-11T00:59:44;100816.97;;;14.72;nan
30967;BME280;17649;51.836;8.330;2023-05-11T01:02:45;100815.44;;;14.70;nan
30967;BME280;17649;51.836;8.330;2023-05-11T01:05:51;100817.53;;;14.65;nan
30967;BME280;17649;51.836;8.330;2023-05-11T01:09:04;100818.06;;;14.44;nan
30967;BME280;17649;51.836;8.330;2023-05-11T01:15:12;100823.63;;;14.38;nan
30967;BME280;17649;51.836;8.330;2023-05-11T01:18:16;100831.13;;;14.43;nan
30967;BME280;17649;51.836;8.330;2023-05-11T01:21:18;100834.16;;;14.37;nan
30967;BME280;17649;51.836;8.330;2023-05-11T01:24:22;100831.22;;;14.41;nan
30967;BME280;17649;51.836;8.330;2023-05-11T01:27:41;100833.31;;;14.36;nan
30967;BME280;17649;51.836;8.330;2023-05-11T01:34:03;100835.00;;;14.37;nan
30967;BME280;17649;51.836;8.330;2023-05-11T01:37:08;100836.97;;;14.33;nan
30967;BME280;17649;51.836;8.330;2023-05-11T01:40:11;100830.72;;;14.36;nan
30967;BME280;17649;51.836;8.330;2023-05-11T01:43:12;100836.75;;;14.24;nan
30967;BME280;17649;51.836;8.330;2023-05-11T01:46:16;100833.19;;;14.12;nan
30967;BME280;17649;51.836;8.330;2023-05-11T01:49:16;100838.91;;;14.05;nan
30967;BME280;17649;51.836;8.330;2023-05-11T01:52:18;100836.09;;;14.08;nan
30967;BME280;17649;51.836;8.330;2023-05-11T01:55:20;100833.84;;;14.16;nan
30967;BME280;17649;51.836;8.330;2023-05-11T01:58:21;100834.69;;;14.29;nan
30967;BME280;17649;51.836;8.330;2023-05-11T02:01:23;100838.09;;;14.17;nan
30967;BME280;17649;51.836;8.330;2023-05-11T02:04:24;100840.28;;;14.23;nan
30967;BME280;17649;51.836;8.330;2023-05-11T02:07:24;100839.03;;;14.16;nan
30967;BME280;17649;51.836;8.330;2023-05-11T02:10:26;100837.97;;;14.06;nan
30967;BME280;17649;51.836;8.330;2023-05-11T02:13:27;100846.00;;;14.15;nan
30967;BME280;17649;51.836;8.330;2023-05-11T02:16:28;100843.63;;;14.25;nan
30967;BME280;17649;51.836;8.330;2023-05-11T02:19:34;100834.88;;;14.26;nan
30967;BME280;17649;51.836;8.330;2023-05-11T02:22:35;100839.78;;;14.30;nan
30967;BME280;17649;51.836;8.330;2023-05-11T02:25:36;100839.44;;;14.22;nan
30967;BME280;17649;51.836;8.330;2023-05-11T02:28:38;100841.34;;;14.33;nan
30967;BME280;17649;51.836;8.330;2023-05-11T02:31:42;100838.75;;;14.33;nan
30967;BME280;17649;51.836;8.330;2023-05-11T02:34:46;100838.13;;;14.29;nan
30967;BME280;17649;51.836;8.330;2023-05-11T02:37:48;100837.19;;;14.30;nan
30967;BME280;17649;51.836;8.330;2023-05-11T02:40:50;100839.97;;;14.27;nan
30967;BME280;17649;51.836;8.330;2023-05-11T02:43:54;100840.19;;;14.24;nan
30967;BME280;17649;51.836;8.330;2023-05-11T02:46:55;100853.16;;;14.12;nan
30967;BME280;17649;51.836;8.330;2023-05-11T02:50:00;100850.34;;;14.02;nan
30967;BME280;17649;51.836;8.330;2023-05-11T02:53:02;100851.59;;;14.09;nan
30967;BME280;17649;51.836;8.330;2023-05-11T02:56:05;100844.63;;;14.10;nan
30967;BME280;17649;51.836;8.330;2023-05-11T02:59:05;100849.69;;;13.98;nan
30967;BME280;17649;51.836;8.330;2023-05-11T03:02:06;100843.31;;;14.17;nan
30967;BME280;17649;51.836;8.330;2023-05-11T03:05:07;100843.81;;;14.09;nan
30967;BME280;17649;51.836;8.330;2023-05-11T03:08:07;100846.06;;;13.88;nan
30967;BME280;17649;51.836;8.330;2023-05-11T03:11:07;100850.16;;;14.05;nan
30967;BME280;17649;51.836;8.330;2023-05-11T03:14:08;100851.09;;;14.04;nan
30967;BME280;17649;51.836;8.330;2023-05-11T03:17:08;100858.59;;;14.09;nan
30967;BME280;17649;51.836;8.330;2023-05-11T03:20:10;100852.16;;;14.14;nan
30967;BME280;17649;51.836;8.330;2023-05-11T03:23:10;100841.94;;;14.24;nan
30967;BME280;17649;51.836;8.330;2023-05-11T03:26:11;100852.53;;;14.08;nan
30967;BME280;17649;51.836;8.330;2023-05-11T03:29:12;100841.44;;;14.19;nan
30967;BME280;17649;51.836;8.330;2023-05-11T03:32:15;100837.78;;;14.21;nan
30967;BME280;17649;51.836;8.330;2023-05-11T03:35:15;100840.50;;;14.20;nan
30967;BME280;17649;51.836;8.330;2023-05-11T03:38:15;100848.81;;;14.25;nan
30967;BME280;17649;51.836;8.330;2023-05-11T03:41:16;100843.63;;;14.25;nan
30967;BME280;17649;51.836;8.330;2023-05-11T03:44:16;100847.97;;;14.12;nan
30967;BME280;17649;51.836;8.330;2023-05-11T03:47:19;100846.50;;;14.08;nan
30967;BME280;17649;51.836;8.330;2023-05-11T03:50:20;100839.66;;;14.19;nan
30967;BME280;17649;51.836;8.330;2023-05-11T03:53:20;100847.53;;;14.05;nan
30967;BME280;17649;51.836;8.330;2023-05-11T03:56:21;100841.66;;;14.16;nan
30967;BME280;17649;51.836;8.330;2023-05-11T03:59:21;100846.28;;;14.11;nan
30967;BME280;17649;51.836;8.330;2023-05-11T04:02:21;100843.94;;;14.33;nan
30967;BME280;17649;51.836;8.330;2023-05-11T04:05:23;100846.69;;;14.44;nan
30967;BME280;17649;51.836;8.330;2023-05-11T04:08:23;100843.88;;;14.47;nan
30967;BME280;17649;51.836;8.330;2023-05-11T04:11:24;100834.50;;;14.57;nan
30967;BME280;17649;51.836;8.330;2023-05-11T04:14:26;100846.91;;;14.67;nan
30967;BME280;17649;51.836;8.330;2023-05-11T04:17:26;100845.56;;;14.74;nan
30967;BME280;17649;51.836;8.330;2023-05-11T04:20:26;100837.91;;;14.83;nan
30967;BME280;17649;51.836;8.330;2023-05-11T04:23:26;100834.78;;;14.91;nan
30967;BME280;17649;51.836;8.330;2023-05-11T04:26:27;100841.56;;;14.81;nan
30967;BME280;17649;51.836;8.330;2023-05-11T04:29:27;100846.16;;;14.90;nan
30967;BME280;17649;51.836;8.330;2023-05-11T04:32:27;100838.44;;;14.88;nan
30967;BME280;17649;51.836;8.330;2023-05-11T04:35:29;100842.06;;;14.99;nan
30967;BME280;17649;51.836;8.330;2023-05-11T04:38:29;100844.38;;;15.03;nan
30967;BME280;17649;51.836;8.330;2023-05-11T04:41:30;100840.25;;;15.12;nan
30967;BME280;17649;51.836;8.330;2023-05-11T04:44:30;100841.94;;;15.13;nan
30967;BME280;17649;51.836;8.330;2023-05-11T04:47:31;100839.66;;;15.08;nan
30967;BME280;17649;51.836;8.330;2023-05-11T04:50:32;100846.53;;;15.09;nan
30967;BME280;17649;51.836;8.330;2023-05-11T04:53:32;100847.38;;;15.10;nan
30967;BME280;17649;51.836;8.330;2023-05-11T04:56:32;100840.94;;;14.90;nan
30967;BME280;17649;51.836;8.330;2023-05-11T04:59:35;100847.59;;;14.94;nan
30967;BME280;17649;51.836;8.330;2023-05-11T05:02:35;100848.00;;;15.01;nan
30967;BME280;17649;51.836;8.330;2023-05-11T05:05:36;100852.19;;;15.03;nan
30967;BME280;17649;51.836;8.330;2023-05-11T05:08:36;100845.09;;;14.93;nan
30967;BME280;17649;51.836;8.330;2023-05-11T05:11:36;100847.81;;;14.91;nan
30967;BME280;17649;51.836;8.330;2023-05-11T05:14:36;100854.59;;;14.94;nan
30967;BME280;17649;51.836;8.330;2023-05-11T05:17:36;100853.53;;;14.96;nan
30967;BME280;17649;51.836;8.330;2023-05-11T05:20:37;100858.63;;;15.10;nan
30967;BME280;17649;51.836;8.330;2023-05-11T05:23:38;100858.13;;;15.05;nan
30967;BME280;17649;51.836;8.330;2023-05-11T05:26:38;100859.22;;;15.14;nan
30967;BME280;17649;51.836;8.330;2023-05-11T05:29:39;100867.09;;;15.38;nan
30967;BME280;17649;51.836;8.330;2023-05-11T05:32:39;100866.88;;;15.41;nan
30967;BME280;17649;51.836;8.330;2023-05-11T05:35:39;100870.06;;;15.57;nan
30967;BME280;17649;51.836;8.330;2023-05-11T05:38:41;100865.78;;;15.56;nan
30967;BME280;17649;51.836;8.330;2023-05-11T05:41:41;100867.47;;;15.44;nan
30967;BME280;17649;51.836;8.330;2023-05-11T05:44:42;100867.66;;;15.54;nan
30967;BME280;17649;51.836;8.330;2023-05-11T05:47:42;100867.59;;;15.79;nan
30967;BME280;17649;51.836;8.330;2023-05-11T05:50:42;100864.88;;;15.81;nan
30967;BME280;17649;51.836;8.330;2023-05-11T05:53:43;100871.16;;;16.14;nan
30967;BME280;17649;51.836;8.330;2023-05-11T05:56:43;100877.03;;;16.28;nan
30967;BME280;17649;51.836;8.330;2023-05-11T05:59:43;100867.56;;;16.50;nan
30967;BME280;17649;51.836;8.330;2023-05-11T06:02:44;100866.28;;;16.55;nan
30967;BME280;17649;51.836;8.330;2023-05-11T06:05:44;100871.44;;;16.33;nan
30967;BME280;17649;51.836;8.330;2023-05-11T06:08:44;100873.28;;;16.66;nan
30967;BME280;17649;51.836;8.330;2023-05-11T06:11:44;100870.97;;;16.85;nan
30967;BME280;17649;51.836;8.330;2023-05-11T06:14:45;100865.03;;;16.83;nan
30967;BME280;17649;51.836;8.330;2023-05-11T06:17:45;100865.38;;;16.90;nan
30967;BME280;17649;51.836;8.330;2023-05-11T06:20:45;100870.25;;;17.17;nan
30967;BME280;17649;51.836;8.330;2023-05-11T06:23:45;100868.66;;;17.37;nan
30967;BME280;17649;51.836;8.330;2023-05-11T06:26:46;100870.34;;;17.26;nan
30967;BME280;17649;51.836;8.330;2023-05-11T06:29:46;100869.41;;;17.16;nan
30967;BME280;17649;51.836;8.330;2023-05-11T06:32:46;100861.19;;;17.10;nan
30967;BME280;17649;51.836;8.330;2023-05-11T06:35:46;100866.09;;;17.03;nan
30967;BME280;17649;51.836;8.330;2023-05-11T06:38:47;100865.38;;;17.01;nan
30967;BME280;17649;51.836;8.330;2023-05-11T06:41:50;100863.34;;;17.05;nan
30967;BME280;17649;51.836;8.330;2023-05-11T06:44:50;100866.06;;;17.25;nan
30967;BME280;17649;51.836;8.330;2023-05-11T06:47:50;100874.19;;;17.54;nan
30967;BME280;17649;51.836;8.330;2023-05-11T06:50:50;100875.38;;;17.62;nan
30967;BME280;17649;51.836;8.330;2023-05-11T06:53:51;100868.41;;;17.40;nan
30967;BME280;17649;51.836;8.330;2023-05-11T06:56:51;100864.75;;;17.42;nan
30967;BME280;17649;51.836;8.330;2023-05-11T06:59:51;100867.94;;;17.35;nan
30967;BME280;17649;51.836;8.330;2023-05-11T07:02:52;100863.41;;;17.48;nan
30967;BME280;17649;51.836;8.330;2023-05-11T07:05:53;100868.78;;;17.35;nan
30967;BME280;17649;51.836;8.330;2023-05-11T07:08:53;100871.25;;;17.48;nan
30967;BME280;17649;51.836;8.330;2023-05-11T07:11:54;100875.25;;;17.63;nan
30967;BME280;17649;51.836;8.330;2023-05-11T07:14:54;100865.19;;;17.47;nan
30967;BME280;17649;51.836;8.330;2023-05-11T07:17:55;100868.38;;;17.73;nan
30967;BME280;17649;51.836;8.330;2023-05-11T07:20:55;100871.00;;;17.73;nan
30967;BME280;17649;51.836;8.330;2023-05-11T07:23:55;100858.91;;;17.82;nan
30967;BME280;17649;51.836;8.330;2023-05-11T07:26:56;100872.50;;;17.65;nan
30967;BME280;17649;51.836;8.330;2023-05-11T07:29:56;100867.28;;;17.76;nan
30967;BME280;17649;51.836;8.330;2023-05-11T07:32:56;100863.81;;;18.07;nan
30967;BME280;17649;51.836;8.330;2023-05-11T07:35:56;100868.75;;;18.22;nan
30967;BME280;17649;51.836;8.330;2023-05-11T07:38:57;100863.13;;;18.47;nan
30967;BME280;17649;51.836;8.330;2023-05-11T07:41:58;100868.28;;;17.96;nan
30967;BME280;17649;51.836;8.330;2023-05-11T07:44:58;100864.72;;;18.17;nan
30967;BME280;17649;51.836;8.330;2023-05-11T07:47:58;100861.69;;;18.43;nan
30967;BME280;17649;51.836;8.330;2023-05-11T07:50:59;100868.34;;;18.68;nan
30967;BME280;17649;51.836;8.330;2023-05-11T07:54:00;100861.50;;;19.17;nan
30967;BME280;17649;51.836;8.330;2023-05-11T07:57:00;100852.59;;;19.39;nan
30967;BME280;17649;51.836;8.330;2023-05-11T08:00:03;100854.50;;;19.27;nan
30967;BME280;17649;51.836;8.330;2023-05-11T08:03:04;100853.69;;;19.46;nan
30967;BME280;17649;51.836;8.330;2023-05-11T08:06:05;100846.91;;;18.84;nan
30967;BME280;17649;51.836;8.330;2023-05-11T08:09:06;100853.53;;;19.28;nan
30967;BME280;17649;51.836;8.330;2023-05-11T08:12:06;100844.78;;;19.08;nan
30967;BME280;17649;51.836;8.330;2023-05-11T08:15:08;100849.25;;;19.27;nan
30967;BME280;17649;51.836;8.330;2023-05-11T08:18:11;100853.72;;;18.96;nan
30967;BME280;17649;51.836;8.330;2023-05-11T08:21:12;100850.25;;;19.35;nan
30967;BME280;17649;51.836;8.330;2023-05-11T08:24:12;100847.69;;;19.55;nan
30967;BME280;17649;51.836;8.330;2023-05-11T08:27:13;100851.56;;;19.70;nan
30967;BME280;17649;51.836;8.330;2023-05-11T08:30:14;100851.97;;;19.75;nan
30967;BME280;17649;51.836;8.330;2023-05-11T08:33:14;100860.53;;;19.08;nan
30967;BME280;17649;51.836;8.330;2023-05-11T08:36:15;100858.25;;;19.44;nan
30967;BME280;17649;51.836;8.330;2023-05-11T08:39:15;100851.28;;;19.14;nan
30967;BME280;17649;51.836;8.330;2023-05-11T08:42:15;100852.38;;;19.11;nan
30967;BME280;17649;51.836;8.330;2023-05-11T08:45:16;100852.69;;;18.77;nan
30967;BME280;17649;51.836;8.330;2023-05-11T08:48:16;100852.16;;;19.33;nan
30967;BME280;17649;51.836;8.330;2023-05-11T08:51:17;100851.91;;;19.36;nan
30967;BME280;17649;51.836;8.330;2023-05-11T08:54:17;100850.19;;;19.66;nan
30967;BME280;17649;51.836;8.330;2023-05-11T08:57:18;100867.47;;;19.28;nan
30967;BME280;17649;51.836;8.330;2023-05-11T09:00:19;100860.66;;;19.16;nan
30967;BME280;17649;51.836;8.330;2023-05-11T09:03:19;100857.28;;;19.35;nan
30967;BME280;17649;51.836;8.330;2023-05-11T09:06:20;100855.84;;;19.12;nan
30967;BME280;17649;51.836;8.330;2023-05-11T09:09:20;100861.56;;;19.36;nan
30967;BME280;17649;51.836;8.330;2023-05-11T09:12:21;100850.94;;;19.47;nan
30967;BME280;17649;51.836;8.330;2023-05-11T09:15:25;100852.59;;;19.39;nan
30967;BME280;17649;51.836;8.330;2023-05-11T09:18:25;100855.84;;;19.81;nan
30967;BME280;17649;51.836;8.330;2023-05-11T09:21:25;100862.75;;;20.01;nan
30967;BME280;17649;51.836;8.330;2023-05-11T09:24:27;100854.19;;;19.80;nan
30967;BME280;17649;51.836;8.330;2023-05-11T09:27:27;100862.34;;;19.96;nan
30967;BME280;17649;51.836;8.330;2023-05-11T09:30:27;100859.53;;;20.17;nan
30967;BME280;17649;51.836;8.330;2023-05-11T09:33:28;100859.28;;;20.01;nan
30967;BME280;17649;51.836;8.330;2023-05-11T09:36:28;100844.75;;;20.16;nan
30967;BME280;17649;51.836;8.330;2023-05-11T09:39:32;100849.63;;;19.82;nan
30967;BME280;17649;51.836;8.330;2023-05-11T09:42:36;100854.56;;;20.14;nan
30967;BME280;17649;51.836;8.330;2023-05-11T09:45:40;100856.00;;;19.79;nan
30967;BME280;17649;51.836;8.330;2023-05-11T09:48:41;100854.47;;;19.67;nan
30967;BME280;17649;51.836;8.330;2023-05-11T09:51:41;100860.25;;;19.61;nan
30967;BME280;17649;51.836;8.330;2023-05-11T09:54:42;100856.91;;;19.59;nan
30967;BME280;17649;51.836;8.330;2023-05-11T09:57:43;100854.44;;;19.77;nan
30967;BME280;17649;51.836;8.330;2023-05-11T10:00:51;100853.44;;;20.45;nan
30967;BME280;17649;51.836;8.330;2023-05-11T10:03:52;100855.41;;;19.85;nan
30967;BME280;17649;51.836;8.330;2023-05-11T10:06:56;100855.94;;;19.50;nan
30967;BME280;17649;51.836;8.330;2023-05-11T10:10:00;100853.16;;;19.42;nan
30967;BME280;17649;51.836;8.330;2023-05-11T10:13:01;100855.06;;;19.40;nan
30967;BME280;17649;51.836;8.330;2023-05-11T10:16:02;100854.03;;;19.62;nan
30967;BME280;17649;51.836;8.330;2023-05-11T10:19:06;100857.06;;;19.57;nan
30967;BME280;17649;51.836;8.330;2023-05-11T10:22:06;100850.19;;;19.95;nan
30967;BME280;17649;51.836;8.330;2023-05-11T10:25:07;100850.97;;;19.57;nan
30967;BME280;17649;51.836;8.330;2023-05-11T10:28:08;100845.91;;;19.94;nan
30967;BME280;17649;51.836;8.330;2023-05-11T10:31:08;100841.31;;;19.57;nan
30967;BME280;17649;51.836;8.330;2023-05-11T10:34:09;100840.50;;;19.67;nan
30967;BME280;17649;51.836;8.330;2023-05-11T10:37:09;100850.09;;;19.37;nan
30967;BME280;17649;51.836;8.330;2023-05-11T10:40:10;100842.03;;;19.10;nan
30967;BME280;17649;51.836;8.330;2023-05-11T10:46:29;100840.75;;;19.63;
30967;BME280;17649;51.836;8.330;2023-05-11T10:49:56;100845.06;;;19.55;nan
30967;BME280;17649;51.836;8.330;2023-05-11T10:53:19;100842.69;;;19.90;nan
30967;BME280;17649;51.836;8.330;2023-05-11T10:56:38;100850.16;;;20.24;nan
30967;BME280;17649;51.836;8.330;2023-05-11T11:02:41;100844.63;;;19.88;nan
30967;BME280;17649;51.836;8.330;2023-05-11T11:05:41;100843.00;;;19.97;nan
30967;BME280;17649;51.836;8.330;2023-05-11T11:08:58;100845.75;;;19.76;nan
30967;BME280;17649;51.836;8.330;2023-05-11T11:12:07;100849.63;;;19.72;nan
30967;BME280;17649;51.836;8.330;2023-05-11T11:15:08;100858.53;;;19.41;nan
30967;BME280;17649;51.836;8.330;2023-05-11T11:21:37;100858.31;;;18.10;nan
30967;BME280;17649;51.836;8.330;2023-05-11T11:30:44;100868.50;;;18.66;nan
30967;BME280;17649;51.836;8.330;2023-05-11T11:33:44;100868.31;;;18.89;nan
30967;BME280;17649;51.836;8.330;2023-05-11T11:40:03;100866.88;;;18.12;100.00
30967;BME280;17649;51.836;8.330;2023-05-11T11:46:24;100873.66;;;18.36;100.00
30967;BME280;17649;51.836;8.330;2023-05-11T11:49:25;100871.53;;;18.51;100.00
30967;BME280;17649;51.836;8.330;2023-05-11T12:01:50;100874.59;;;17.93;100.00
30967;BME280;17649;51.836;8.330;2023-05-11T12:04:51;100884.63;;;18.30;100.00
30967;BME280;17649;51.836;8.330;2023-05-11T12:07:55;100870.91;;;18.37;100.00
30967;BME280;17649;51.836;8.330;2023-05-11T12:10:57;100869.75;;;18.51;100.00
30967;BME280;17649;51.836;8.330;2023-05-11T12:13:58;100874.28;;;18.91;100.00
30967;BME280;17649;51.836;8.330;2023-05-11T12:16:59;100880.16;;;18.83;100.00
30967;BME280;17649;51.836;8.330;2023-05-11T12:20:10;100874.28;;;18.28;100.00
30967;BME280;17649;51.836;8.330;2023-05-11T12:23:11;100870.72;;;18.50;100.00
30967;BME280;17649;51.836;8.330;2023-05-11T12:26:13;100878.97;;;18.45;100.00
30967;BME280;17649;51.836;8.330;2023-05-11T12:29:18;100875.59;;;18.75;100.00
30967;BME280;17649;51.836;8.330;2023-05-11T12:32:25;100872.69;;;18.79;100.00
30967;BME280;17649;51.836;8.330;2023-05-11T12:35:27;100864.56;;;18.82;100.00
30967;BME280;17649;51.836;8.330;2023-05-11T12:38:28;100859.56;;;19.19;100.00
30967;BME280;17649;51.836;8.330;2023-05-11T12:41:28;100860.97;;;19.23;100.00
30967;BME280;17649;51.836;8.330;2023-05-11T12:44:29;100855.47;;;18.86;100.00
30967;BME280;17649;51.836;8.330;2023-05-11T12:47:29;100856.03;;;18.89;100.00
30967;BME280;17649;51.836;8.330;2023-05-11T12:50:30;100852.56;;;18.89;100.00
30967;BME280;17649;51.836;8.330;2023-05-11T12:53:33;100850.31;;;19.05;100.00
30967;BME280;17649;51.836;8.330;2023-05-11T12:56:43;100847.09;;;19.01;100.00
30967;BME280;17649;51.836;8.330;2023-05-11T12:59:43;100849.53;;;19.24;100.00
30967;BME280;17649;51.836;8.330;2023-05-11T13:02:50;100849.81;;;19.21;100.00
30967;BME280;17649;51.836;8.330;2023-05-11T13:05:51;100845.34;;;19.12;100.00
30967;BME280;17649;51.836;8.330;2023-05-11T13:08:53;100842.19;;;19.18;100.00
30967;BME280;17649;51.836;8.330;2023-05-11T13:15:26;100840.13;;;19.31;100.00
30967;BME280;17649;51.836;8.330;2023-05-11T13:18:27;100846.63;;;18.77;100.00
30967;BME280;17649;51.836;8.330;2023-05-11T13:21:28;100839.06;;;18.42;100.00
30967;BME280;17649;51.836;8.330;2023-05-11T13:24:29;100845.59;;;18.68;100.00
30967;BME280;17649;51.836;8.330;2023-05-11T13:27:29;100834.16;;;19.19;100.00
30967;BME280;17649;51.836;8.330;2023-05-11T13:30:29;100846.72;;;19.56;100.00
30967;BME280;17649;51.836;8.330;2023-05-11T13:33:30;100840.25;;;19.10;100.00
30967;BME280;17649;51.836;8.330;2023-05-11T13:36:30;100840.94;;;18.51;100.00
30967;BME280;17649;51.836;8.330;2023-05-11T13:39:31;100843.81;;;18.27;100.00
30967;BME280;17649;51.836;8.330;2023-05-11T13:42:31;100848.97;;;17.76;100.00
30967;BME280;17649;51.836;8.330;2023-05-11T13:45:32;100850.19;;;17.61;100.00
30967;BME280;17649;51.836;8.330;2023-05-11T13:48:32;100850.31;;;17.59;100.00
30967;BME280;17649;51.836;8.330;2023-05-11T13:51:32;100849.06;;;17.85;100.00
30967;BME280;17649;51.836;8.330;2023-05-11T13:54:34;100854.28;;;17.85;100.00
30967;BME280;17649;51.836;8.330;2023-05-11T13:57:34;100847.56;;;18.55;100.00
30967;BME280;17649;51.836;8.330;2023-05-11T14:00:34;100842.53;;;18.94;100.00
30967;BME280;17649;51.836;8.330;2023-05-11T14:03:35;100828.25;;;18.56;100.00
30967;BME280;17649;51.836;8.330;2023-05-11T14:06:35;100842.56;;;18.63;100.00
30967;BME280;17649;51.836;8.330;2023-05-11T14:09:35;100832.75;;;18.96;100.00
30967;BME280;17649;51.836;8.330;2023-05-11T14:12:36;100834.16;;;19.10;100.00
30967;BME280;17649;51.836;8.330;2023-05-11T14:15:36;100830.19;;;19.25;100.00
30967;BME280;17649;51.836;8.330;2023-05-11T14:18:37;100821.06;;;19.19;100.00
30967;BME280;17649;51.836;8.330;2023-05-11T14:21:37;100826.63;;;19.35;100.00
30967;BME280;17649;51.836;8.330;2023-05-11T14:24:38;100833.16;;;19.60;100.00
30967;BME280;17649;51.836;8.330;2023-05-11T14:27:39;100831.94;;;19.74;100.00
30967;BME280;17649;51.836;8.330;2023-05-11T14:30:39;100828.16;;;20.06;100.00
30967;BME280;17649;51.836;8.330;2023-05-11T14:33:39;100825.69;;;20.04;100.00
30967;BME280;17649;51.836;8.330;2023-05-11T14:36:40;100819.22;;;19.99;100.00
30967;BME280;17649;51.836;8.330;2023-05-11T14:39:40;100823.88;;;20.05;100.00
30967;BME280;17649;51.836;8.330;2023-05-11T14:42:40;100820.03;;;20.09;100.00
30967;BME280;17649;51.836;8.330;2023-05-11T14:45:41;100822.38;;;19.92;100.00
30967;BME280;17649;51.836;8.330;2023-05-11T14:48:41;100814.09;;;19.78;100.00
30967;BME280;17649;51.836;8.330;2023-05-11T14:51:42;100819.22;;;19.89;100.00
30967;BME280;17649;51.836;8.330;2023-05-11T14:54:43;100816.88;;;19.86;100.00
30967;BME280;17649;51.836;8.330;2023-05-11T14:57:43;100811.50;;;19.68;100.00
30967;BME280;17649;51.836;8.330;2023-05-11T15:00:43;100820.72;;;19.91;100.00
30967;BME280;17649;51.836;8.330;2023-05-11T15:03:43;100812.16;;;19.99;100.00
30967;BME280;17649;51.836;8.330;2023-05-11T15:06:44;100811.19;;;20.10;100.00
30967;BME280;17649;51.836;8.330;2023-05-11T15:09:44;100824.47;;;19.89;100.00
30967;BME280;17649;51.836;8.330;2023-05-11T15:12:45;100821.16;;;19.58;100.00
30967;BME280;17649;51.836;8.330;2023-05-11T15:15:46;100821.25;;;19.47;100.00
30967;BME280;17649;51.836;8.330;2023-05-11T15:18:46;100828.13;;;19.48;100.00
30967;BME280;17649;51.836;8.330;2023-05-11T15:21:46;100821.88;;;19.10;100.00
30967;BME280;17649;51.836;8.330;2023-05-11T15:24:47;100826.31;;;19.29;100.00
30967;BME280;17649;51.836;8.330;2023-05-11T15:27:47;100829.06;;;19.18;100.00
30967;BME280;17649;51.836;8.330;2023-05-11T15:30:47;100834.41;;;18.66;100.00
30967;BME280;17649;51.836;8.330;2023-05-11T15:33:47;100827.31;;;18.88;100.00
30967;BME280;17649;51.836;8.330;2023-05-11T15:36:49;100832.97;;;19.23;100.00
30967;BME280;17649;51.836;8.330;2023-05-11T15:39:49;100838.13;;;19.04;100.00
30967;BME280;17649;51.836;8.330;2023-05-11T15:42:50;100830.56;;;19.11;100.00
30967;BME280;17649;51.836;8.330;2023-05-11T15:45:50;100831.31;;;19.32;100.00
30967;BME280;17649;51.836;8.330;2023-05-11T15:48:50;100824.75;;;19.57;100.00
30967;BME280;17649;51.836;8.330;2023-05-11T15:51:51;100827.94;;;19.11;100.00
30967;BME280;17649;51.836;8.330;2023-05-11T15:54:52;100825.09;;;18.83;100.00
30967;BME280;17649;51.836;8.330;2023-05-11T15:57:52;100830.84;;;18.46;100.00
30967;BME280;17649;51.836;8.330;2023-05-11T16:00:52;100837.16;;;18.95;100.00
30967;BME280;17649;51.836;8.330;2023-05-11T16:03:52;100834.69;;;18.63;100.00
30967;BME280;17649;51.836;8.330;2023-05-11T16:06:52;100832.66;;;19.07;100.00
30967;BME280;17649;51.836;8.330;2023-05-11T16:09:53;100834.41;;;18.97;100.00
30967;BME280;17649;51.836;8.330;2023-05-11T16:12:53;100840.66;;;18.54;100.00
30967;BME280;17649;51.836;8.330;2023-05-11T16:15:54;100835.47;;;18.33;100.00
30967;BME280;17649;51.836;8.330;2023-05-11T16:18:54;100830.84;;;18.26;100.00
30967;BME280;17649;51.836;8.330;2023-05-11T16:21:54;100840.09;;;18.51;100.00
30967;BME280;17649;51.836;8.330;2023-05-11T16:24:55;100834.50;;;18.34;100.00
30967;BME280;17649;51.836;8.330;2023-05-11T16:27:55;100841.31;;;18.26;100.00
30967;BME280;17649;51.836;8.330;2023-05-11T16:30:55;100839.16;;;17.89;100.00
30967;BME280;17649;51.836;8.330;2023-05-11T16:33:56;100839.50;;;17.52;100.00
30967;BME280;17649;51.836;8.330;2023-05-11T16:36:56;100844.84;;;17.51;100.00
30967;BME280;17649;51.836;8.330;2023-05-11T16:39:56;100843.03;;;17.08;100.00
30967;BME280;17649;51.836;8.330;2023-05-11T16:42:56;100849.22;;;16.74;100.00
30967;BME280;17649;51.836;8.330;2023-05-11T16:45:57;100842.88;;;16.65;100.00